createdAt,value
2023-04-15T00:00:36.288Z,8.30
2023-04-15T00:03:03.282Z,8.18
2023-04-15T00:05:31.591Z,8.15
2023-04-15T00:07:58.973Z,8.13
2023-04-15T00:10:27.021Z,8.15
2023-04-15T00:12:54.059Z,8.05
2023-04-15T00:15:20.749Z,8.09
2023-04-15T00:17:49.820Z,7.96
2023-04-15T00:20:16.437Z,7.82
2023-04-15T00:22:43.076Z,7.82
2023-04-15T00:25:09.626Z,7.71
2023-04-15T00:27:36.103Z,7.72
2023-04-15T00:30:04.038Z,7.78
2023-04-15T00:32:31.165Z,7.77
2023-04-15T00:35:00.543Z,7.81
2023-04-15T00:37:27.347Z,7.68
2023-04-15T00:39:54.128Z,7.63
2023-04-15T00:42:21.812Z,7.77
2023-04-15T00:44:49.197Z,7.67
2023-04-15T00:47:17.328Z,7.55
2023-04-15T00:49:43.802Z,7.58
2023-04-15T00:52:10.356Z,7.57
2023-04-15T00:54:37.678Z,7.55
2023-04-15T00:57:06.556Z,7.51
2023-04-15T00:59:34.643Z,7.68
2023-04-15T01:02:02.321Z,7.50
2023-04-15T01:04:32.761Z,7.42
2023-04-15T01:06:59.635Z,7.42
2023-04-15T01:09:26.421Z,7.39
2023-04-15T01:12:00.959Z,7.44
2023-04-15T01:14:28.079Z,7.20
2023-04-15T01:16:54.632Z,7.39
2023-04-15T01:19:21.524Z,7.27
2023-04-15T01:21:53.367Z,7.33
2023-04-15T01:24:20.198Z,7.26
2023-04-15T01:26:47.260Z,7.12
2023-04-15T01:29:14.044Z,7.02
2023-04-15T01:31:40.720Z,6.96
2023-04-15T01:34:13.381Z,6.97
2023-04-15T01:36:40.206Z,6.93
2023-04-15T01:39:06.637Z,6.91
2023-04-15T01:41:33.306Z,7.09
2023-04-15T01:43:59.823Z,7.06
2023-04-15T01:46:26.638Z,6.86
2023-04-15T01:48:53.608Z,6.68
2023-04-15T01:51:23.257Z,6.74
2023-04-15T01:53:49.812Z,6.60
2023-04-15T01:56:19.333Z,6.74
2023-04-15T01:58:46.545Z,7.02
2023-04-15T02:01:13.163Z,6.97
2023-04-15T02:03:40.282Z,7.07
2023-04-15T02:06:07.155Z,7.13
2023-04-15T02:08:33.768Z,7.05
2023-04-15T02:11:01.277Z,6.81
2023-04-15T02:13:28.215Z,6.85
2023-04-15T02:15:55.638Z,6.49
2023-04-15T02:18:23.301Z,6.51
2023-04-15T02:20:52.239Z,6.37
2023-04-15T02:23:19.013Z,6.34
2023-04-15T02:25:53.553Z,6.45
2023-04-15T02:28:24.478Z,6.34
2023-04-15T02:30:53.065Z,6.30
2023-04-15T02:33:21.385Z,6.33
2023-04-15T02:35:56.950Z,6.31
2023-04-15T02:38:26.508Z,6.18
2023-04-15T02:40:53.627Z,6.14
2023-04-15T02:43:21.774Z,6.17
2023-04-15T02:45:48.703Z,6.10
2023-04-15T02:48:18.313Z,6.13
2023-04-15T02:50:49.998Z,6.16
2023-04-15T02:53:20.124Z,5.96
2023-04-15T02:55:49.546Z,5.92
2023-04-15T02:58:16.549Z,5.76
2023-04-15T03:00:43.080Z,5.75
2023-04-15T03:03:11.000Z,5.80
2023-04-15T03:05:39.248Z,5.73
2023-04-15T03:08:05.842Z,5.69
2023-04-15T03:10:32.717Z,5.70
2023-04-15T03:12:59.350Z,5.67
2023-04-15T03:15:26.265Z,5.62
2023-04-15T03:17:53.056Z,5.72
2023-04-15T03:20:20.429Z,5.77
2023-04-15T03:22:47.243Z,5.75
2023-04-15T03:25:14.177Z,5.67
2023-04-15T03:27:47.773Z,5.59
2023-04-15T03:30:14.391Z,5.51
2023-04-15T03:32:41.170Z,5.39
2023-04-15T03:35:14.052Z,5.38
2023-04-15T03:37:40.872Z,5.37
2023-04-15T03:40:11.534Z,5.42
2023-04-15T03:42:44.333Z,5.52
2023-04-15T03:45:11.550Z,5.42
2023-04-15T03:47:47.471Z,5.54
2023-04-15T03:50:13.962Z,5.56
2023-04-15T03:52:46.293Z,5.54
2023-04-15T03:55:13.325Z,5.55
2023-04-15T03:57:40.120Z,5.52
2023-04-15T04:00:09.446Z,5.55
2023-04-15T04:02:36.383Z,5.66
2023-04-15T04:05:05.663Z,5.62
2023-04-15T04:07:38.547Z,5.63
2023-04-15T04:10:08.650Z,5.55
2023-04-15T04:12:35.153Z,5.58
2023-04-15T04:15:04.905Z,5.38
2023-04-15T04:17:37.658Z,5.21
2023-04-15T04:20:10.406Z,5.18
2023-04-15T04:22:42.960Z,5.30
2023-04-15T04:25:10.408Z,5.35
2023-04-15T04:27:37.116Z,5.31
2023-04-15T04:30:04.912Z,5.34
2023-04-15T04:32:36.766Z,5.27
2023-04-15T04:35:04.736Z,5.23
2023-04-15T04:37:31.438Z,5.23
2023-04-15T04:39:58.013Z,5.24
2023-04-15T04:42:28.733Z,5.10
2023-04-15T04:44:55.299Z,5.10
2023-04-15T04:47:22.246Z,5.27
2023-04-15T04:49:50.638Z,5.18
2023-04-15T04:52:20.148Z,5.10
2023-04-15T04:54:49.754Z,4.84
2023-04-15T04:57:16.324Z,4.76
2023-04-15T04:59:42.743Z,4.70
2023-04-15T05:02:09.386Z,4.87
2023-04-15T05:04:36.933Z,4.88
2023-04-15T05:07:03.306Z,5.06
2023-04-15T05:09:32.317Z,5.06
2023-04-15T05:11:58.676Z,5.07
2023-04-15T05:14:25.071Z,5.03
2023-04-15T05:16:51.437Z,5.14
2023-04-15T05:19:17.767Z,5.13
2023-04-15T05:21:44.195Z,5.14
2023-04-15T05:24:10.593Z,5.08
2023-04-15T05:26:36.994Z,5.10
2023-04-15T05:29:03.538Z,5.08
2023-04-15T05:31:30.208Z,5.41
2023-04-15T05:33:56.724Z,5.28
2023-04-15T05:36:23.174Z,5.54
2023-04-15T05:38:49.645Z,5.65
2023-04-15T05:41:19.115Z,5.55
2023-04-15T05:43:46.404Z,5.72
2023-04-15T05:46:12.916Z,5.79
2023-04-15T05:48:39.451Z,6.00
2023-04-15T05:51:06.376Z,6.13
2023-04-15T05:53:32.877Z,6.31
2023-04-15T05:55:59.334Z,6.48
2023-04-15T05:58:25.966Z,6.63
2023-04-15T06:00:52.846Z,6.72
2023-04-15T06:03:19.337Z,6.79
2023-04-15T06:05:45.752Z,7.05
2023-04-15T06:08:12.480Z,7.35
2023-04-15T06:10:39.019Z,7.46
2023-04-15T06:13:05.939Z,7.64
2023-04-15T06:15:32.485Z,7.71
2023-04-15T06:17:59.266Z,7.88
2023-04-15T06:20:26.098Z,8.07
2023-04-15T06:22:52.588Z,8.22
2023-04-15T06:25:19.050Z,8.42
2023-04-15T06:27:45.470Z,8.44
2023-04-15T06:32:36.293Z,8.80
2023-04-15T06:35:02.749Z,8.94
2023-04-15T06:37:29.327Z,9.19
2023-04-15T06:39:56.053Z,9.42
2023-04-15T06:42:22.828Z,9.47
2023-04-15T06:44:49.487Z,9.67
2023-04-15T06:47:15.957Z,9.81
2023-04-15T06:49:43.187Z,9.62
2023-04-15T06:52:11.239Z,9.83
2023-04-15T06:54:37.613Z,9.98
2023-04-15T06:57:04.070Z,10.18
2023-04-15T06:59:30.444Z,10.35
2023-04-15T07:01:56.873Z,10.46
2023-04-15T07:04:24.383Z,10.66
2023-04-15T07:06:50.813Z,10.90
2023-04-15T07:09:17.196Z,11.10
2023-04-15T07:11:43.562Z,11.23
2023-04-15T07:14:09.933Z,11.21
2023-04-15T07:16:36.379Z,11.34
2023-04-15T07:19:03.037Z,11.48
2023-04-15T07:21:29.729Z,11.37
2023-04-15T07:23:56.165Z,11.74
2023-04-15T07:26:23.507Z,11.95
2023-04-15T07:28:50.204Z,12.20
2023-04-15T07:31:17.398Z,12.38
2023-04-15T07:33:43.782Z,12.88
2023-04-15T07:36:10.479Z,13.32
2023-04-15T07:38:37.572Z,13.91
2023-04-15T07:41:04.890Z,13.63
2023-04-15T07:43:31.362Z,13.39
2023-04-15T07:45:57.849Z,13.67
2023-04-15T07:48:24.335Z,14.19
2023-04-15T07:50:50.750Z,13.80
2023-04-15T07:53:17.139Z,13.74
2023-04-15T07:55:43.545Z,13.78
2023-04-15T07:58:09.944Z,14.16
2023-04-15T08:00:39.461Z,14.14
2023-04-15T08:03:06.001Z,14.08
2023-04-15T08:05:33.137Z,14.16
2023-04-15T08:07:59.625Z,14.37
2023-04-15T08:10:26.199Z,14.35
2023-04-15T08:12:54.287Z,14.08
2023-04-15T08:15:21.499Z,14.19
2023-04-15T08:17:47.969Z,14.29
2023-04-15T08:20:14.482Z,14.73
2023-04-15T08:22:41.467Z,14.90
2023-04-15T08:25:09.004Z,14.39
2023-04-15T08:27:35.617Z,14.32
2023-04-15T08:30:04.696Z,14.57
2023-04-15T08:32:31.980Z,14.30
2023-04-15T08:34:58.528Z,13.88
2023-04-15T08:37:24.897Z,13.81
2023-04-15T08:39:51.348Z,13.74
2023-04-15T08:42:23.288Z,13.97
2023-04-15T08:44:51.061Z,13.95
2023-04-15T08:47:21.566Z,13.98
2023-04-15T08:49:53.726Z,13.75
2023-04-15T08:52:20.805Z,13.60
2023-04-15T08:54:48.020Z,14.04
2023-04-15T08:57:15.446Z,14.04
2023-04-15T08:59:43.541Z,14.43
2023-04-15T09:02:10.173Z,15.04
2023-04-15T09:04:36.658Z,15.65
2023-04-15T09:07:03.091Z,15.94
2023-04-15T09:09:29.551Z,15.99
2023-04-15T09:11:56.717Z,16.00
2023-04-15T09:14:23.284Z,16.01
2023-04-15T09:17:04.310Z,15.35
2023-04-15T09:19:32.560Z,15.42
2023-04-15T09:21:59.752Z,15.21
2023-04-15T09:24:36.076Z,15.05
2023-04-15T09:27:03.605Z,14.84
2023-04-15T09:29:30.281Z,14.84
2023-04-15T09:31:56.625Z,14.88
2023-04-15T09:34:36.073Z,15.82
2023-04-15T09:37:02.454Z,15.85
2023-04-15T09:39:45.700Z,15.11
2023-04-15T09:42:12.082Z,15.85
2023-04-15T09:44:38.600Z,16.10
2023-04-15T09:47:06.280Z,18.05
2023-04-15T09:49:32.911Z,18.75
2023-04-15T09:52:06.308Z,19.73
2023-04-15T09:54:37.994Z,20.28
2023-04-15T09:57:09.042Z,20.20
2023-04-15T09:59:36.201Z,18.51
2023-04-15T10:02:05.623Z,17.26
2023-04-15T10:04:35.536Z,17.57
2023-04-15T10:07:04.902Z,18.50
2023-04-15T10:09:33.529Z,17.74
2023-04-15T10:12:01.017Z,17.06
2023-04-15T10:14:32.827Z,16.61
2023-04-15T10:17:01.745Z,16.06
2023-04-15T10:19:32.719Z,16.35
2023-04-15T10:22:00.202Z,16.75
2023-04-15T10:24:27.787Z,17.44
2023-04-15T10:26:55.341Z,17.50
2023-04-15T10:29:23.247Z,16.65
2023-04-15T10:31:50.145Z,17.69
2023-04-15T10:34:18.376Z,18.23
2023-04-15T10:36:47.016Z,17.46
2023-04-15T10:39:35.107Z,16.59
2023-04-15T10:42:09.924Z,16.45
2023-04-15T10:44:38.674Z,16.07
2023-04-15T10:47:10.744Z,15.77
2023-04-15T10:49:45.073Z,15.59
2023-04-15T10:52:12.527Z,15.74
2023-04-15T10:54:39.555Z,15.36
2023-04-15T10:57:08.949Z,15.11
2023-04-15T11:00:00.658Z,14.87
2023-04-15T11:02:43.206Z,14.94
2023-04-15T11:05:11.384Z,15.05
2023-04-15T11:07:47.154Z,14.97
2023-04-15T11:10:15.007Z,14.93
2023-04-15T11:12:42.008Z,14.72
2023-04-15T11:15:30.489Z,14.94
2023-04-15T11:17:58.217Z,14.70
2023-04-15T11:20:25.413Z,14.90
2023-04-15T11:23:07.999Z,14.55
2023-04-15T11:25:41.695Z,15.03
2023-04-15T11:28:08.220Z,15.24
2023-04-15T11:30:37.484Z,15.56
2023-04-15T11:33:06.203Z,15.22
2023-04-15T11:35:32.898Z,15.00
2023-04-15T11:38:03.772Z,14.83
2023-04-15T11:40:31.889Z,14.67
2023-04-15T11:43:10.434Z,14.42
2023-04-15T11:46:00.882Z,15.08
2023-04-15T11:48:29.794Z,15.76
2023-04-15T11:51:01.184Z,15.36
2023-04-15T11:53:46.022Z,14.84
2023-04-15T11:56:23.448Z,14.32
2023-04-15T11:58:59.280Z,14.37
2023-04-15T12:01:33.149Z,14.51
2023-04-15T12:04:01.473Z,14.64
2023-04-15T12:06:34.923Z,14.53
2023-04-15T12:09:15.254Z,14.16
2023-04-15T12:11:48.457Z,14.01
2023-04-15T12:14:24.673Z,13.74
2023-04-15T12:16:58.150Z,13.63
2023-04-15T12:19:27.579Z,13.67
2023-04-15T12:22:00.796Z,13.68
2023-04-15T12:24:27.865Z,13.30
2023-04-15T12:26:57.641Z,13.05
2023-04-15T12:29:28.992Z,12.91
2023-04-15T12:32:13.558Z,12.93
2023-04-15T12:34:45.036Z,13.05
2023-04-15T12:37:14.181Z,12.95
2023-04-15T12:39:42.418Z,12.98
2023-04-15T12:42:09.862Z,13.03
2023-04-15T12:44:37.503Z,13.07
2023-04-15T12:47:04.187Z,13.02
2023-04-15T12:49:32.436Z,12.79
2023-04-15T12:52:00.696Z,12.79
2023-04-15T12:54:27.882Z,12.88
2023-04-15T12:56:54.763Z,12.74
2023-04-15T12:59:21.901Z,12.55
2023-04-15T13:01:49.000Z,12.46
2023-04-15T13:04:16.437Z,12.44
2023-04-15T13:06:43.389Z,12.61
2023-04-15T13:09:09.847Z,12.68
2023-04-15T13:11:36.693Z,12.58
2023-04-15T13:14:05.734Z,12.46
2023-04-15T13:16:33.347Z,12.34
2023-04-15T13:19:00.540Z,12.47
2023-04-15T13:21:27.667Z,12.38
2023-04-15T13:23:54.958Z,12.31
2023-04-15T13:26:21.731Z,12.40
2023-04-15T13:28:48.158Z,12.44
2023-04-15T13:31:15.110Z,12.48
2023-04-15T13:33:41.551Z,12.38
2023-04-15T13:36:08.337Z,12.36
2023-04-15T13:38:34.727Z,12.40
2023-04-15T13:41:01.186Z,12.44
2023-04-15T13:43:27.621Z,12.27
2023-04-15T13:45:54.094Z,12.41
2023-04-15T13:48:20.679Z,12.64
2023-04-15T13:50:47.085Z,12.58
2023-04-15T13:53:13.558Z,12.78
2023-04-15T13:55:43.229Z,12.55
2023-04-15T13:58:10.178Z,12.68
2023-04-15T14:00:36.717Z,12.54
2023-04-15T14:03:03.996Z,12.34
2023-04-15T14:05:30.775Z,12.34
2023-04-15T14:07:57.235Z,12.33
2023-04-15T14:10:23.614Z,12.41
2023-04-15T14:12:50.063Z,12.51
2023-04-15T14:15:16.501Z,12.65
2023-04-15T14:17:42.966Z,12.64
2023-04-15T14:20:10.005Z,12.48
2023-04-15T14:22:36.481Z,12.37
2023-04-15T14:25:02.927Z,12.38
2023-04-15T14:27:29.434Z,12.36
2023-04-15T14:29:57.647Z,12.50
2023-04-15T14:32:25.700Z,12.51
2023-04-15T14:34:52.212Z,12.33
2023-04-15T14:37:18.660Z,12.41
2023-04-15T14:39:45.523Z,12.26
2023-04-15T14:42:11.898Z,12.14
2023-04-15T14:44:39.432Z,11.99
2023-04-15T14:47:06.078Z,11.83
2023-04-15T14:49:32.649Z,11.86
2023-04-15T14:51:59.033Z,11.97
2023-04-15T14:54:25.494Z,11.95
2023-04-15T14:56:51.891Z,12.14
2023-04-15T14:59:18.683Z,12.27
2023-04-15T15:01:45.579Z,12.12
2023-04-15T15:04:12.968Z,11.99
2023-04-15T15:06:40.597Z,11.85
2023-04-15T15:09:07.613Z,11.81
2023-04-15T15:11:34.028Z,11.65
2023-04-15T15:14:00.612Z,11.49
2023-04-15T15:16:28.294Z,11.34
2023-04-15T15:18:55.645Z,11.44
2023-04-15T15:21:22.257Z,11.51
2023-04-15T15:23:48.663Z,11.42
2023-04-15T15:26:15.707Z,11.52
2023-04-15T15:28:42.338Z,11.41
2023-04-15T15:31:08.896Z,11.27
2023-04-15T15:33:35.554Z,11.27
2023-04-15T15:36:03.146Z,11.24
2023-04-15T15:38:29.572Z,11.24
2023-04-15T15:40:56.052Z,11.20
2023-04-15T15:43:22.473Z,11.20
2023-04-15T15:45:51.649Z,11.23
2023-04-15T15:48:18.483Z,11.13
2023-04-15T15:50:45.682Z,11.08
2023-04-15T15:53:12.397Z,11.06
2023-04-15T15:55:38.760Z,11.04
2023-04-15T15:58:05.144Z,11.07
2023-04-15T16:00:32.859Z,10.94
2023-04-15T16:05:28.656Z,10.90
2023-04-15T16:07:56.465Z,10.81
2023-04-15T16:10:22.959Z,10.75
2023-04-15T16:12:49.488Z,10.59
2023-04-15T16:15:15.834Z,10.58
2023-04-15T16:17:42.526Z,10.53
2023-04-15T16:20:09.364Z,10.49
2023-04-15T16:22:36.077Z,10.52
2023-04-15T16:25:03.302Z,10.42
2023-04-15T16:27:29.741Z,10.29
2023-04-15T16:29:56.268Z,10.38
2023-04-15T16:32:24.926Z,10.39
2023-04-15T16:34:52.821Z,10.53
2023-04-15T16:37:20.783Z,10.60
2023-04-15T16:39:47.484Z,10.52
2023-04-15T16:42:13.963Z,10.63
2023-04-15T16:44:40.312Z,10.60
2023-04-15T16:47:08.869Z,10.52
2023-04-15T16:49:35.522Z,10.53
2023-04-15T16:52:02.480Z,10.56
2023-04-15T16:54:29.680Z,10.48
2023-04-15T16:56:58.514Z,10.52
2023-04-15T16:59:25.833Z,10.50
2023-04-15T17:01:52.479Z,10.58
2023-04-15T17:04:19.100Z,10.42
2023-04-15T17:06:45.975Z,10.37
2023-04-15T17:09:12.397Z,10.38
2023-04-15T17:11:40.521Z,10.41
2023-04-15T17:14:07.667Z,10.41
2023-04-15T17:16:34.171Z,10.44
2023-04-15T17:19:00.570Z,10.48
2023-04-15T17:21:27.365Z,10.59
2023-04-15T17:23:53.803Z,10.62
2023-04-15T17:26:20.632Z,10.55
2023-04-15T17:28:47.026Z,10.52
2023-04-15T17:31:13.615Z,10.48
2023-04-15T17:33:55.546Z,10.46
2023-04-15T17:36:27.183Z,10.42
2023-04-15T17:38:56.344Z,10.42
2023-04-15T17:41:23.042Z,10.49
2023-04-15T17:43:49.468Z,10.41
2023-04-15T17:46:15.970Z,10.39
2023-04-15T17:48:42.414Z,10.37
2023-04-15T17:51:08.782Z,10.38
2023-04-15T17:53:35.576Z,10.33
2023-04-15T17:57:36.348Z,10.31
2023-04-15T18:00:02.971Z,10.29
2023-04-15T18:02:29.603Z,10.29
2023-04-15T18:05:10.992Z,10.33
2023-04-15T18:07:37.596Z,10.31
2023-04-15T18:10:04.508Z,10.29
2023-04-15T18:12:30.905Z,10.26
2023-04-15T18:14:57.280Z,10.25
2023-04-15T18:17:23.761Z,10.21
2023-04-15T18:19:51.479Z,10.18
2023-04-15T18:22:18.049Z,10.07
2023-04-15T18:24:44.456Z,10.04
2023-04-15T18:27:10.914Z,9.86
2023-04-15T18:29:37.320Z,9.81
2023-04-15T18:32:03.896Z,9.70
2023-04-15T18:34:30.375Z,9.66
2023-04-15T18:36:58.130Z,9.60
2023-04-15T18:39:26.136Z,9.60
2023-04-15T18:41:52.609Z,9.56
2023-04-15T18:44:19.340Z,9.53
2023-04-15T18:46:45.875Z,9.49
2023-04-15T18:49:12.468Z,9.44
2023-04-15T18:51:38.894Z,9.28
2023-04-15T18:54:05.573Z,9.26
2023-04-15T18:56:32.032Z,9.26
2023-04-15T18:59:21.118Z,9.29
2023-04-15T19:01:44.742Z,9.38
2023-04-15T19:04:11.607Z,9.38
2023-04-15T19:06:38.411Z,9.31
2023-04-15T19:09:05.036Z,9.21
2023-04-15T19:11:31.771Z,9.22
2023-04-15T19:13:58.152Z,9.19
2023-04-15T19:16:24.595Z,9.11
2023-04-15T19:18:51.033Z,9.14
2023-04-15T19:21:17.429Z,9.12
2023-04-15T19:23:43.973Z,9.10
2023-04-15T19:26:12.058Z,9.01
2023-04-15T19:28:39.976Z,9.11
2023-04-15T19:31:06.601Z,9.14
2023-04-15T19:33:33.435Z,9.08
2023-04-15T19:36:06.915Z,9.04
2023-04-15T19:38:38.012Z,9.02
2023-04-15T19:41:04.609Z,8.94
2023-04-15T19:43:32.811Z,8.97
2023-04-15T19:45:59.471Z,8.98
2023-04-15T19:48:25.917Z,8.97
2023-04-15T19:50:52.408Z,8.94
2023-04-15T19:53:18.866Z,9.02
2023-04-15T19:55:45.784Z,8.95
2023-04-15T19:58:12.392Z,8.91
2023-04-15T20:00:38.812Z,8.95
2023-04-15T20:03:06.759Z,8.94
2023-04-15T20:05:33.447Z,8.84
2023-04-15T20:08:01.573Z,8.82
2023-04-15T20:10:28.026Z,8.85
2023-04-15T20:12:54.408Z,8.84
2023-04-15T20:15:22.563Z,8.85
2023-04-15T20:17:49.631Z,8.84
2023-04-15T20:20:16.341Z,9.00
2023-04-15T20:22:42.833Z,8.91
2023-04-15T20:25:10.870Z,8.89
2023-04-15T20:27:37.316Z,8.87
2023-04-15T20:30:04.979Z,8.78
2023-04-15T20:32:36.135Z,8.77
2023-04-15T20:35:04.207Z,8.78
2023-04-15T20:37:32.969Z,8.75
2023-04-15T20:40:00.293Z,8.70
2023-04-15T20:42:26.781Z,8.78
2023-04-15T20:44:53.231Z,8.74
2023-04-15T20:47:19.844Z,8.73
2023-04-15T20:49:47.329Z,8.65
2023-04-15T20:52:13.837Z,8.68
2023-04-15T20:54:40.223Z,8.67
2023-04-15T20:57:06.623Z,8.68
2023-04-15T20:59:34.586Z,8.61
2023-04-15T21:02:01.345Z,8.61
2023-04-15T21:04:27.871Z,8.67
2023-04-15T21:06:54.351Z,8.61
2023-04-15T21:09:20.914Z,8.63
2023-04-15T21:14:22.935Z,8.59
2023-04-15T21:16:49.423Z,8.63
2023-04-15T21:19:15.994Z,8.61
2023-04-15T21:21:43.121Z,8.64
2023-04-15T21:24:09.559Z,8.65
2023-04-15T21:26:36.212Z,8.70
2023-04-15T21:29:03.142Z,8.65
2023-04-15T21:31:29.932Z,8.65
2023-04-15T21:33:56.558Z,8.65
2023-04-15T21:36:22.963Z,8.71
2023-04-15T21:38:49.387Z,8.60
2023-04-15T21:41:15.883Z,8.70
2023-04-15T21:43:42.249Z,8.68
2023-04-15T21:46:23.724Z,8.71
2023-04-15T21:48:53.328Z,8.71
2023-04-15T21:51:19.915Z,8.84
2023-04-15T21:53:46.623Z,8.78
2023-04-15T21:56:13.207Z,8.73
2023-04-15T21:58:39.786Z,8.78
2023-04-15T22:01:06.454Z,8.80
2023-04-15T22:03:34.359Z,8.81
2023-04-15T22:06:04.704Z,8.82
2023-04-15T22:08:36.094Z,8.73
2023-04-15T22:11:08.648Z,8.84
2023-04-15T22:13:35.337Z,8.81
2023-04-15T22:16:02.276Z,8.70
2023-04-15T22:18:28.759Z,8.73
2023-04-15T22:20:56.143Z,8.87
2023-04-15T22:23:22.641Z,8.85
2023-04-15T22:25:49.090Z,8.88
2023-04-15T22:28:15.529Z,8.85
2023-04-15T22:30:42.535Z,8.98
2023-04-15T22:33:09.741Z,8.92
2023-04-15T22:35:37.244Z,8.82
2023-04-15T22:38:06.536Z,8.81
2023-04-15T22:40:33.011Z,8.92
2023-04-15T22:42:59.486Z,8.88
2023-04-15T22:45:25.911Z,8.81
2023-04-15T22:47:52.432Z,8.74
2023-04-15T22:50:19.225Z,8.80
2023-04-15T22:52:47.312Z,8.82
2023-04-15T22:55:14.535Z,8.84
2023-04-15T22:57:41.602Z,8.85
2023-04-15T23:00:09.240Z,8.85
2023-04-15T23:02:35.897Z,8.88
2023-04-15T23:05:12.772Z,8.87
2023-04-15T23:07:40.200Z,8.84
2023-04-15T23:10:08.081Z,8.84
2023-04-15T23:12:34.829Z,8.82
2023-04-15T23:15:01.448Z,8.84
2023-04-15T23:17:27.849Z,8.71
2023-04-15T23:19:57.080Z,8.71
2023-04-15T23:22:23.582Z,8.80
2023-04-15T23:24:49.955Z,8.81
2023-04-15T23:27:18.808Z,8.88
2023-04-15T23:29:45.965Z,8.91
2023-04-15T23:32:12.371Z,8.87
2023-04-15T23:34:38.788Z,8.89
2023-04-15T23:37:05.514Z,8.74
2023-04-15T23:39:32.011Z,8.81
2023-04-15T23:41:58.422Z,8.81
2023-04-15T23:44:25.014Z,8.74
2023-04-15T23:46:51.592Z,8.78
2023-04-15T23:49:20.152Z,8.78
2023-04-15T23:51:46.842Z,8.74
2023-04-15T23:54:13.262Z,8.81
2023-04-15T23:56:39.878Z,8.77
